Latest Weather Observations for Bega

IDN60801

Issued at 10:32 am EDT Sunday 26 March 2017 (issued every 30 minutes, with the page automatically refreshed every 10 minutes)

About weather observations | Map of weather stations | Latest weather observations for NSW | Other Formats
Station Details ID: 069139 Name: BEGA AWS Lat: -36.67 Lon: 149.82 Height: 41.0 m
Data from the previous 72 hours. | See also: Recent months at Bega
Date/Time
EDT
Temp
°C
App
Temp
°C
Dew
Point
°C
Rel
Hum
%
Delta-T
°C
Wind Press
QNH
hPa
Press
MSL
hPa
Rain since
9am
mm
Dir  Spd
km/h
Gust
km/h
Spd
kts
Gust
kts
26/10:30am 20.7 22.6 17.7 83 1.8 SE 4 7 2 4 1015.8 1015.6 0.0
26/10:00am 19.4 20.8 17.4 88 1.2 NE 6 7 3 4 1015.7 1015.5 0.0
26/09:30am 17.6 20.2 17.4 99 0.1 CALM 0 0 0 0 1015.7 1015.5 0.0
26/09:00am 15.5 17.2 15.3 99 0.1 CALM 0 0 0 0 1015.4 1015.3 0.2
26/08:30am 14.3 15.7 14.3 100 0.0 CALM 0 0 0 0 1015.1 1015.0 0.2
26/08:00am 13.6 14.7 13.4 99 0.1 CALM 0 0 0 0 1014.7 1014.6 0.0
26/07:30am 13.2 14.1 13.0 99 0.1 CALM 0 0 0 0 1014.4 1014.3 0.0
26/07:00am 13.1 14.0 12.9 99 0.1 CALM 0 0 0 0 1014.3 1014.2 0.0
26/06:30am 13.2 14.1 13.0 99 0.1 CALM 0 0 0 0 1013.7 1013.6 0.0
26/06:00am 13.5 14.5 13.3 99 0.1 CALM 0 0 0 0 1013.5 1013.4 0.0
26/05:30am 13.8 14.9 13.6 99 0.1 CALM 0 0 0 0 1013.3 1013.2 0.0
26/05:00am 13.6 14.7 13.4 99 0.1 CALM 0 0 0 0 1013.3 1013.2 0.0
26/04:30am 13.9 15.1 13.7 99 0.1 CALM 0 0 0 0 1013.2 1013.1 0.0
26/04:00am 14.4 15.7 14.2 99 0.1 CALM 0 0 0 0 1013.3 1013.2 0.0
26/03:30am 14.8 16.3 14.6 99 0.1 CALM 0 0 0 0 1013.4 1013.3 0.0
26/03:00am 14.8 16.3 14.6 99 0.1 CALM 0 0 0 0 1013.6 1013.5 0.0
26/02:30am 15.0 16.6 14.8 99 0.1 CALM 0 0 0 0 1013.7 1013.6 0.0
26/02:00am 15.4 17.1 15.2 99 0.1 CALM 0 0 0 0 1013.7 1013.6 0.0
26/01:30am 15.8 17.6 15.6 99 0.1 CALM 0 0 0 0 1014.0 1013.9 0.0
26/01:00am 15.7 17.5 15.5 99 0.1 CALM 0 0 0 0 1014.3 1014.2 0.0
26/12:30am 16.3 18.3 16.1 99 0.1 CALM 0 0 0 0 1014.5 1014.4 0.0
26/12:00am 16.4 18.4 16.1 98 0.2 CALM 0 0 0 0 1014.5 1014.4 0.0
 
Date/Time
EDT
Temp
°C
App
Temp
°C
Dew
Point
°C
Rel
Hum
%
Delta-T
°C
Wind Press
QNH
hPa
Press
MSL
hPa
Rain since
9am
mm
Dir  Spd
km/h
Gust
km/h
Spd
kts
Gust
kts
25/11:30pm 17.2 19.6 17.0 99 0.1 CALM 0 0 0 0 1014.7 1014.6 0.0
25/11:00pm 17.5 20.0 17.3 99 0.1 CALM 0 0 0 0 1014.6 1014.5 0.0
25/10:30pm 17.1 18.3 16.8 98 0.2 SSW 6 7 3 4 1014.7 1014.6 0.0
25/10:00pm 17.8 20.2 17.0 95 0.5 CALM 0 0 0 0 1014.5 1014.4 0.0
25/09:30pm 18.3 20.7 17.0 92 0.8 CALM 0 0 0 0 1014.5 1014.4 0.0
25/09:00pm 18.8 20.3 17.5 92 0.8 NNW 6 7 3 4 1014.2 1014.1 0.0
25/08:30pm 19.5 22.1 17.6 89 1.2 CALM 0 0 0 0 1013.8 1013.7 0.0
25/08:00pm 19.7 22.2 18.2 91 0.9 N 2 6 1 3 1013.5 1013.4 0.0
25/07:30pm 20.3 23.2 18.2 88 1.3 CALM 0 0 0 0 1013.2 1013.1 0.0
25/07:00pm 20.7 23.7 18.5 87 1.4 CALM 0 0 0 0 1013.1 1013.0 0.0
25/06:30pm 20.8 22.9 18.0 84 1.7 E 4 7 2 4 1012.7 1012.6 0.0
25/06:00pm 21.3 23.7 17.9 81 2.1 SW 2 6 1 3 1012.7 1012.6 0.0
25/05:30pm 21.9 23.5 17.9 78 2.5 SE 6 9 3 5 1012.5 1012.4 0.0
25/05:00pm 22.8 25.5 17.7 73 3.2 CALM 0 0 0 0 1012.2 1012.1 0.0
25/04:30pm 23.3 25.8 17.3 69 3.7 CALM 0 6 0 3 1012.2 1012.1 0.0
25/04:00pm 23.9 24.9 16.4 63 4.6 NNE 6 11 3 6 1012.1 1012.0 0.0
25/03:30pm 23.6 23.9 16.1 62 4.6 NE 9 13 5 7 1012.6 1012.5 0.0
25/03:00pm 23.1 23.5 16.4 66 4.1 NNE 9 13 5 7 1012.7 1012.6 0.0
25/02:30pm 23.2 23.7 17.4 70 3.6 N 11 13 6 7 1013.0 1012.9 0.0
25/02:00pm 21.9 22.5 16.8 73 3.1 N 9 13 5 7 1013.4 1013.3 0.0
25/01:30pm 21.7 23.1 17.3 76 2.7 N 6 11 3 6 1013.9 1013.8 0.0
25/01:00pm 20.7 21.6 16.1 75 2.8 NNE 6 11 3 6 1014.3 1014.2 0.0
25/12:30pm 20.2 21.7 16.6 80 2.2 NNW 4 11 2 6 1014.9 1014.8 0.0
25/12:00pm 19.8 21.1 17.2 85 1.6 NE 6 9 3 5 1015.0 1014.9 0.0
25/11:30am 19.1 20.2 16.5 85 1.6 SE 6 7 3 4 1015.8 1015.6 0.0
25/11:00am 18.8 19.9 17.1 90 1.0 SSW 7 9 4 5 1016.0 1015.8 0.0
25/10:30am 17.6 18.3 17.1 97 0.3 SSW 9 11 5 6 1015.9 1015.7 0.0
25/10:00am 17.1 18.3 16.9 99 0.1 SW 6 7 3 4 1015.4 1015.3 0.0
25/09:30am 16.1 18.1 15.9 99 0.1 CALM 0 0 0 0 1015.5 1015.4 0.0
25/09:00am 15.8 17.6 15.6 99 0.1 CALM 0 0 0 0 1016.0 1015.8 0.4
25/08:30am 15.2 16.1 15.0 99 0.1 S 4 7 2 4 1016.3 1016.1 0.4
25/08:00am 14.5 15.9 14.3 99 0.1 CALM 0 0 0 0 1016.5 1016.3 0.4
25/07:30am 14.2 14.7 14.0 99 0.1 NW 4 7 2 4 1016.4 1016.2 0.4
25/07:00am 14.3 14.5 14.1 99 0.1 SSW 6 9 3 5 1016.4 1016.2 0.4
25/06:30am 14.5 15.9 14.3 99 0.1 CALM 0 7 0 4 1016.1 1015.9 0.4
25/06:00am 14.9 15.3 14.7 99 0.1 WSW 6 11 3 6 1016.8 1016.6 0.4
25/05:30am 14.8 16.3 14.6 99 0.1 CALM 0 4 0 2 1016.1 1015.9 0.4
25/05:00am 14.9 15.3 14.7 99 0.1 SSW 6 7 3 4 1016.5 1016.3 0.4
25/04:30am 15.9 16.5 15.3 96 0.3 WNW 6 7 3 4 1016.7 1016.5 0.4
25/04:00am 15.7 16.3 15.2 97 0.3 NNW 6 9 3 5 1016.8 1016.6 0.4
25/03:30am 15.9 17.6 15.3 96 0.3 CALM 0 0 0 0 1017.0 1016.9 0.4
25/03:00am 16.5 18.5 15.9 96 0.4 CALM 0 0 0 0 1017.5 1017.4 0.4
25/02:30am 16.7 18.7 16.1 96 0.4 CALM 0 0 0 0 1018.0 1017.9 0.4
25/02:00am 16.6 18.5 15.8 95 0.5 CALM 0 0 0 0 1018.0 1017.9 0.4
25/01:30am 16.8 18.5 16.3 97 0.3 SW 2 9 1 5 1018.8 1018.7 0.4
25/01:00am 17.0 19.0 16.0 94 0.6 CALM 0 0 0 0 1018.6 1018.5 0.4
25/12:30am 17.2 19.2 15.9 92 0.8 CALM 0 4 0 2 1018.6 1018.5 0.4
25/12:00am 17.3 19.4 16.3 94 0.6 CALM 0 0 0 0 1019.3 1019.2 0.4
 
Date/Time
EDT
Temp
°C
App
Temp
°C
Dew
Point
°C
Rel
Hum
%
Delta-T
°C
Wind Press
QNH
hPa
Press
MSL
hPa
Rain since
9am
mm
Dir  Spd
km/h
Gust
km/h
Spd
kts
Gust
kts
24/11:30pm 17.6 19.1 16.6 94 0.6 WSW 4 7 2 4 1019.5 1019.4 0.4
24/11:00pm 17.6 19.6 15.9 90 1.0 CALM 0 0 0 0 1020.1 1020.0 0.4
24/10:30pm 17.7 19.7 16.0 90 1.0 CALM 0 0 0 0 1020.1 1020.0 0.4
24/10:00pm 17.9 19.8 15.7 87 1.3 CALM 0 0 0 0 1020.4 1020.3 0.4
24/09:30pm 18.0 18.8 15.8 87 1.3 WNW 6 7 3 4 1020.9 1020.8 0.4
24/09:00pm 18.1 18.2 15.5 85 1.5 WNW 9 13 5 7 1020.7 1020.6 0.4
24/08:30pm 18.2 18.3 15.6 85 1.5 NW 9 13 5 7 1020.2 1020.1 0.4
24/08:00pm 18.3 18.8 15.6 84 1.6 NW 7 7 4 4 1020.2 1020.1 0.4
24/07:30pm 18.6 19.7 14.5 77 2.4 ENE 2 7 1 4 1020.3 1020.2 0.4
24/07:00pm 19.0 18.6 14.1 73 2.8 ESE 9 13 5 7 1020.0 1019.9 0.4
24/06:30pm 19.3 18.5 14.1 72 3.0 ENE 11 20 6 11 1020.1 1020.0 0.4
24/06:00pm 19.7 19.8 14.5 72 3.0 E 7 11 4 6 1020.1 1020.0 0.4
24/05:30pm 19.9 19.2 14.3 70 3.3 NE 11 15 6 8 1019.6 1019.5 0.4
24/05:00pm 20.0 18.7 14.8 72 3.0 ENE 15 20 8 11 1019.4 1019.3 0.4
24/04:30pm 20.5 18.8 14.6 69 3.5 ENE 17 20 9 11 1019.3 1019.2 0.4
24/04:00pm 20.8 20.1 15.4 71 3.2 NE 13 17 7 9 1019.7 1019.6 0.4
24/03:30pm 20.8 19.3 15.4 71 3.2 ENE 17 22 9 12 1019.9 1019.8 0.4
24/03:00pm 19.3 19.3 16.3 83 1.8 NNE 11 17 6 9 1020.7 1020.6 0.4
24/02:30pm 18.9 17.9 16.7 87 1.3 NNE 17 20 9 11 1020.9 1020.8 0.4
24/02:00pm 20.9 20.5 16.1 74 2.9 ESE 13 17 7 9 1021.1 1021.0 0.4
24/01:30pm 20.9 20.9 17.3 80 2.2 SE 13 19 7 10 1021.4 1021.3 0.4
24/01:00pm 20.5 21.8 17.1 81 2.1 S 6 9 3 5 1021.6 1021.5 0.4
24/12:30pm 18.8 19.6 17.3 91 0.9 SSW 9 15 5 8 1022.1 1022.0 0.4
24/12:00pm 21.0 22.0 16.8 77 2.5 WSW 7 9 4 5 1022.2 1022.1 0.0
24/11:30am 19.5 19.6 16.5 83 1.8 SW 11 13 6 7 1022.3 1022.2 0.0
24/11:00am 19.1 19.1 16.3 84 1.7 SSE 11 15 6 8 1022.4 1022.3 0.0
24/10:30am 19.1 21.0 16.7 86 1.4 SW 2 7 1 4 1022.3 1022.2 0.0
24/10:00am 17.8 20.3 17.2 96 0.4 CALM 0 0 0 0 1022.3 1022.2 0.0
24/09:30am 17.2 18.3 16.7 97 0.3 E 6 9 3 5 1022.3 1022.2 0.0
24/09:00am 16.7 18.7 16.1 96 0.4 CALM 0 0 0 0 1022.0 1021.9 5.8
24/08:30am 16.5 18.5 16.0 97 0.3 CALM 0 9 0 5 1021.7 1021.6 5.8
24/08:00am 16.5 17.4 16.2 98 0.2 SW 6 11 3 6 1021.6 1021.5 5.8
24/07:30am 15.8 15.2 15.6 99 0.1 W 13 19 7 10 1021.3 1021.2 5.8
24/07:00am 15.5 17.2 15.3 99 0.1 CALM 0 0 0 0 1021.4 1021.3 5.6
24/06:30am 15.4 17.1 15.2 99 0.1 CALM 0 0 0 0 1021.2 1021.1 5.6
24/06:00am 15.4 17.1 15.1 98 0.2 CALM 0 0 0 0 1021.1 1021.0 5.6
24/05:30am 15.8 17.5 15.2 96 0.3 CALM 0 0 0 0 1021.0 1020.9 5.6
24/05:00am 16.0 16.6 15.4 96 0.3 WSW 6 7 3 4 1020.9 1020.8 5.6
24/04:30am 16.2 18.2 15.9 98 0.2 CALM 0 6 0 3 1021.2 1021.1 5.6
24/04:00am 16.4 17.0 15.8 96 0.4 WSW 7 9 4 5 1021.2 1021.1 5.6
24/03:30am 16.3 16.1 15.8 97 0.3 WSW 11 15 6 8 1021.1 1021.0 5.6
24/03:00am 16.4 18.5 16.2 99 0.1 CALM 0 0 0 0 1021.4 1021.3 5.4
24/02:30am 16.3 17.2 16.0 98 0.2 SW 6 7 3 4 1021.6 1021.5 5.4
24/02:00am 16.2 16.5 16.0 99 0.1 WSW 9 15 5 8 1021.5 1021.4 5.4
24/01:30am 16.2 17.4 16.0 99 0.1 S 4 9 2 5 1021.7 1021.6 5.4
24/01:00am 16.4 17.2 15.8 96 0.4 SW 6 9 3 5 1021.7 1021.6 5.4
24/12:30am 16.5 16.0 16.0 97 0.3 W 13 17 7 9 1021.5 1021.4 5.4
24/12:00am 16.6 16.5 16.1 97 0.3 SSW 11 15 6 8 1021.8 1021.7 5.4
 
Date/Time
EDT
Temp
°C
App
Temp
°C
Dew
Point
°C
Rel
Hum
%
Delta-T
°C
Wind Press
QNH
hPa
Press
MSL
hPa
Rain since
9am
mm
Dir  Spd
km/h
Gust
km/h
Spd
kts
Gust
kts
23/11:30pm 16.4 17.7 16.1 98 0.2 SE 4 9 2 5 1021.9 1021.8 5.4
23/11:00pm 16.4 17.9 15.8 96 0.4 WSW 2 7 1 4 1021.7 1021.6 5.4
23/10:30pm 16.7 17.8 15.6 93 0.6 SW 4 9 2 5 1021.6 1021.5 5.4
23/10:00pm 17.0 16.8 15.7 92 0.8 SW 11 17 6 9 1021.5 1021.4 5.4
23/09:30pm 17.2 16.0 16.1 93 0.7 WSW 17 20 9 11 1021.4 1021.3 5.4
23/09:00pm 17.1 16.7 16.3 95 0.5 SW 13 15 7 8 1021.3 1021.2 5.4
23/08:30pm 17.0 16.3 16.5 97 0.3 WSW 15 20 8 11 1020.9 1020.8 5.4
23/08:00pm 17.0 16.3 16.4 96 0.4 SW 15 20 8 11 1020.7 1020.6 5.2
23/07:30pm 17.0 15.4 16.5 97 0.3 SW 20 26 11 14 1020.4 1020.3 5.2
23/07:00pm 17.5 16.4 16.4 93 0.7 SW 17 20 9 11 1020.3 1020.2 4.8
23/06:30pm 17.4 17.4 16.3 93 0.7 SW 11 15 6 8 1020.0 1019.9 4.8
23/06:00pm 17.4 17.2 16.6 95 0.5 WSW 13 15 7 8 1019.9 1019.8 4.8
23/05:30pm 17.6 17.1 17.0 96 0.4 SW 15 20 8 11 1020.0 1019.9 4.6
23/05:00pm 17.6 17.5 17.0 96 0.4 SW 13 20 7 11 1019.8 1019.7 4.4
23/04:30pm 17.8 17.0 17.2 96 0.4 SSW 17 24 9 13 1019.8 1019.7 4.2
23/04:00pm 17.9 18.0 17.4 97 0.3 SSW 13 19 7 10 1019.8 1019.7 4.2
23/03:30pm 18.0 18.1 17.5 97 0.3 SW 13 17 7 9 1019.9 1019.8 3.6
23/03:00pm 17.9 18.0 17.4 97 0.3 SSW 13 15 7 8 1020.0 1019.9 3.4
23/02:30pm 17.6 17.9 17.0 96 0.4 SW 11 15 6 8 1020.1 1020.0 2.2
23/02:00pm 18.1 17.4 16.3 89 1.1 SSE 15 20 8 11 1020.2 1020.1 1.0
23/01:30pm 20.3 19.9 16.1 77 2.5 WSW 13 15 7 8 1020.1 1020.0 0.0
23/01:00pm 20.5 21.0 16.5 78 2.4 SW 9 11 5 6 1020.1 1020.0 0.0
23/12:30pm 19.5 18.5 16.5 83 1.8 SW 17 20 9 11 1020.5 1020.4 0.0
23/12:00pm 20.4 20.5 16.4 78 2.4 S 11 19 6 10 1020.7 1020.6 0.0
23/11:30am 19.2 19.5 17.0 87 1.3 SSW 11 22 6 12 1021.1 1021.0 0.0
23/11:00am 20.2 19.5 15.4 74 2.8 SSW 13 20 7 11 1021.2 1021.1 0.0

Other Formats:

Comma delimited format used in spreadsheet applications
http://www.bom.gov.au/fwo/IDN60801/IDN60801.95931.axf

JavaScript Object Notation format (JSON) in row-major order
http://www.bom.gov.au/fwo/IDN60801/IDN60801.95931.json